sensor_id;sensor_type;location;lat;lon;timestamp;P1;durP1;ratioP1;P2;durP2;ratioP2
3341;SDS011;1684;50.748;6.154;2022-09-27T00:00:59;3.23;;;1.43;;
3341;SDS011;1684;50.748;6.154;2022-09-27T00:03:28;2.47;;;0.80;;
3341;SDS011;1684;50.748;6.154;2022-09-27T00:06:00;2.93;;;1.50;;
3341;SDS011;1684;50.748;6.154;2022-09-27T00:08:30;4.27;;;1.43;;
3341;SDS011;1684;50.748;6.154;2022-09-27T00:10:59;2.90;;;1.40;;
3341;SDS011;1684;50.748;6.154;2022-09-27T00:13:28;2.80;;;1.00;;
3341;SDS011;1684;50.748;6.154;2022-09-27T00:15:58;2.20;;;1.00;;
3341;SDS011;1684;50.748;6.154;2022-09-27T00:18:27;2.23;;;1.20;;
3341;SDS011;1684;50.748;6.154;2022-09-27T00:20:56;3.43;;;1.40;;
3341;SDS011;1684;50.748;6.154;2022-09-27T00:23:31;3.17;;;1.60;;
3341;SDS011;1684;50.748;6.154;2022-09-27T00:25:59;3.80;;;1.47;;
3341;SDS011;1684;50.748;6.154;2022-09-27T00:28:28;6.40;;;1.80;;
3341;SDS011;1684;50.748;6.154;2022-09-27T00:30:58;2.80;;;1.67;;
3341;SDS011;1684;50.748;6.154;2022-09-27T00:33:27;5.83;;;2.20;;
3341;SDS011;1684;50.748;6.154;2022-09-27T00:36:01;2.90;;;2.00;;
3341;SDS011;1684;50.748;6.154;2022-09-27T00:38:30;4.80;;;2.03;;
3341;SDS011;1684;50.748;6.154;2022-09-27T00:40:58;6.63;;;2.57;;
3341;SDS011;1684;50.748;6.154;2022-09-27T00:43:40;4.10;;;2.53;;
3341;SDS011;1684;50.748;6.154;2022-09-27T00:46:10;3.57;;;2.30;;
3341;SDS011;1684;50.748;6.154;2022-09-27T00:48:40;4.37;;;2.83;;
3341;SDS011;1684;50.748;6.154;2022-09-27T00:51:08;4.17;;;2.93;;
3341;SDS011;1684;50.748;6.154;2022-09-27T00:53:38;4.90;;;3.60;;
3341;SDS011;1684;50.748;6.154;2022-09-27T00:56:08;3.60;;;2.60;;
3341;SDS011;1684;50.748;6.154;2022-09-27T00:58:38;6.67;;;3.53;;
3341;SDS011;1684;50.748;6.154;2022-09-27T01:01:08;3.87;;;2.60;;
3341;SDS011;1684;50.748;6.154;2022-09-27T01:03:39;2.70;;;1.30;;
3341;SDS011;1684;50.748;6.154;2022-09-27T01:06:10;4.30;;;2.60;;
3341;SDS011;1684;50.748;6.154;2022-09-27T01:08:38;5.70;;;3.30;;
3341;SDS011;1684;50.748;6.154;2022-09-27T01:11:13;3.87;;;2.53;;
3341;SDS011;1684;50.748;6.154;2022-09-27T01:13:42;5.30;;;3.00;;
3341;SDS011;1684;50.748;6.154;2022-09-27T01:16:14;4.30;;;3.23;;
3341;SDS011;1684;50.748;6.154;2022-09-27T01:18:49;4.63;;;2.80;;
3341;SDS011;1684;50.748;6.154;2022-09-27T01:27:03;5.97;;;2.97;;
3341;SDS011;1684;50.748;6.154;2022-09-27T01:29:41;3.73;;;2.40;;
3341;SDS011;1684;50.748;6.154;2022-09-27T01:32:15;3.87;;;3.00;;
3341;SDS011;1684;50.748;6.154;2022-09-27T01:34:46;4.50;;;2.93;;
3341;SDS011;1684;50.748;6.154;2022-09-27T01:37:17;4.93;;;3.47;;
3341;SDS011;1684;50.748;6.154;2022-09-27T01:39:48;7.87;;;2.63;;
3341;SDS011;1684;50.748;6.154;2022-09-27T01:42:19;5.13;;;3.27;;
3341;SDS011;1684;50.748;6.154;2022-09-27T01:44:49;4.40;;;3.20;;
3341;SDS011;1684;50.748;6.154;2022-09-27T01:47:20;5.50;;;3.70;;
3341;SDS011;1684;50.748;6.154;2022-09-27T01:49:51;4.50;;;2.17;;
3341;SDS011;1684;50.748;6.154;2022-09-27T01:52:21;4.80;;;2.73;;
3341;SDS011;1684;50.748;6.154;2022-09-27T01:54:52;5.30;;;2.27;;
3341;SDS011;1684;50.748;6.154;2022-09-27T01:57:21;2.97;;;1.80;;
3341;SDS011;1684;50.748;6.154;2022-09-27T01:59:52;5.40;;;2.30;;
3341;SDS011;1684;50.748;6.154;2022-09-27T02:02:25;4.60;;;1.73;;
3341;SDS011;1684;50.748;6.154;2022-09-27T02:04:54;3.53;;;1.83;;
3341;SDS011;1684;50.748;6.154;2022-09-27T02:07:25;5.53;;;1.63;;
3341;SDS011;1684;50.748;6.154;2022-09-27T02:09:55;3.50;;;1.40;;
3341;SDS011;1684;50.748;6.154;2022-09-27T02:12:26;2.30;;;0.87;;
3341;SDS011;1684;50.748;6.154;2022-09-27T02:14:56;2.27;;;1.20;;
3341;SDS011;1684;50.748;6.154;2022-09-27T02:17:28;4.20;;;1.70;;
3341;SDS011;1684;50.748;6.154;2022-09-27T02:20:00;5.37;;;1.23;;
3341;SDS011;1684;50.748;6.154;2022-09-27T02:22:31;2.87;;;1.23;;
3341;SDS011;1684;50.748;6.154;2022-09-27T02:25:04;2.17;;;0.93;;
3341;SDS011;1684;50.748;6.154;2022-09-27T02:27:35;3.27;;;1.37;;
3341;SDS011;1684;50.748;6.154;2022-09-27T02:30:06;5.73;;;1.23;;
3341;SDS011;1684;50.748;6.154;2022-09-27T02:32:38;1.83;;;0.90;;
3341;SDS011;1684;50.748;6.154;2022-09-27T02:35:10;3.77;;;1.30;;
3341;SDS011;1684;50.748;6.154;2022-09-27T02:37:39;3.67;;;1.63;;
3341;SDS011;1684;50.748;6.154;2022-09-27T02:40:08;3.00;;;1.40;;
3341;SDS011;1684;50.748;6.154;2022-09-27T02:42:36;2.70;;;1.30;;
3341;SDS011;1684;50.748;6.154;2022-09-27T02:45:05;6.47;;;2.07;;
3341;SDS011;1684;50.748;6.154;2022-09-27T02:47:39;2.50;;;1.20;;
3341;SDS011;1684;50.748;6.154;2022-09-27T02:50:15;5.80;;;1.50;;
3341;SDS011;1684;50.748;6.154;2022-09-27T02:52:48;8.77;;;1.50;;
3341;SDS011;1684;50.748;6.154;2022-09-27T02:55:18;3.60;;;1.43;;
3341;SDS011;1684;50.748;6.154;2022-09-27T02:57:50;2.50;;;1.60;;
3341;SDS011;1684;50.748;6.154;2022-09-27T03:00:21;2.77;;;1.30;;
3341;SDS011;1684;50.748;6.154;2022-09-27T03:02:54;7.63;;;2.17;;
3341;SDS011;1684;50.748;6.154;2022-09-27T03:05:26;3.90;;;2.50;;
3341;SDS011;1684;50.748;6.154;2022-09-27T03:07:55;7.63;;;2.40;;
3341;SDS011;1684;50.748;6.154;2022-09-27T03:10:25;3.10;;;2.13;;
3341;SDS011;1684;50.748;6.154;2022-09-27T03:12:54;3.90;;;2.77;;
3341;SDS011;1684;50.748;6.154;2022-09-27T03:15:23;4.10;;;2.10;;
3341;SDS011;1684;50.748;6.154;2022-09-27T03:17:52;4.67;;;2.20;;
3341;SDS011;1684;50.748;6.154;2022-09-27T03:20:21;3.03;;;2.13;;
3341;SDS011;1684;50.748;6.154;2022-09-27T03:22:49;4.37;;;2.20;;
3341;SDS011;1684;50.748;6.154;2022-09-27T03:25:18;4.43;;;2.27;;
3341;SDS011;1684;50.748;6.154;2022-09-27T03:27:46;3.37;;;2.20;;
3341;SDS011;1684;50.748;6.154;2022-09-27T03:30:15;4.07;;;2.10;;
3341;SDS011;1684;50.748;6.154;2022-09-27T03:32:43;7.37;;;2.10;;
3341;SDS011;1684;50.748;6.154;2022-09-27T03:35:12;2.60;;;1.80;;
3341;SDS011;1684;50.748;6.154;2022-09-27T03:37:41;3.83;;;2.40;;
3341;SDS011;1684;50.748;6.154;2022-09-27T03:40:10;7.50;;;3.27;;
3341;SDS011;1684;50.748;6.154;2022-09-27T03:42:38;5.60;;;3.53;;
3341;SDS011;1684;50.748;6.154;2022-09-27T03:45:11;5.70;;;3.03;;
3341;SDS011;1684;50.748;6.154;2022-09-27T03:47:39;5.07;;;2.90;;
3341;SDS011;1684;50.748;6.154;2022-09-27T03:50:08;4.60;;;2.97;;
3341;SDS011;1684;50.748;6.154;2022-09-27T03:52:37;6.00;;;3.20;;
3341;SDS011;1684;50.748;6.154;2022-09-27T03:55:07;4.10;;;2.80;;
3341;SDS011;1684;50.748;6.154;2022-09-27T03:57:35;4.50;;;2.50;;
3341;SDS011;1684;50.748;6.154;2022-09-27T04:00:04;3.47;;;2.67;;
3341;SDS011;1684;50.748;6.154;2022-09-27T04:02:33;3.80;;;2.60;;
3341;SDS011;1684;50.748;6.154;2022-09-27T04:05:01;3.20;;;2.50;;
3341;SDS011;1684;50.748;6.154;2022-09-27T04:07:30;5.83;;;3.13;;
3341;SDS011;1684;50.748;6.154;2022-09-27T04:09:58;3.00;;;2.23;;
3341;SDS011;1684;50.748;6.154;2022-09-27T04:12:28;6.93;;;2.40;;
3341;SDS011;1684;50.748;6.154;2022-09-27T04:14:58;3.80;;;2.17;;
3341;SDS011;1684;50.748;6.154;2022-09-27T04:17:26;3.63;;;2.17;;
3341;SDS011;1684;50.748;6.154;2022-09-27T04:19:55;6.97;;;2.93;;
3341;SDS011;1684;50.748;6.154;2022-09-27T04:22:23;6.73;;;3.07;;
3341;SDS011;1684;50.748;6.154;2022-09-27T04:24:51;3.77;;;1.93;;
3341;SDS011;1684;50.748;6.154;2022-09-27T04:27:19;7.80;;;2.93;;
3341;SDS011;1684;50.748;6.154;2022-09-27T04:29:49;3.40;;;2.67;;
3341;SDS011;1684;50.748;6.154;2022-09-27T04:32:17;6.53;;;2.73;;
3341;SDS011;1684;50.748;6.154;2022-09-27T04:34:46;3.00;;;1.73;;
3341;SDS011;1684;50.748;6.154;2022-09-27T04:37:31;8.13;;;2.37;;
3341;SDS011;1684;50.748;6.154;2022-09-27T04:40:00;3.93;;;2.10;;
3341;SDS011;1684;50.748;6.154;2022-09-27T04:42:29;5.27;;;2.13;;
3341;SDS011;1684;50.748;6.154;2022-09-27T04:45:01;6.27;;;3.60;;
3341;SDS011;1684;50.748;6.154;2022-09-27T04:47:29;6.10;;;2.40;;
3341;SDS011;1684;50.748;6.154;2022-09-27T04:49:59;3.90;;;2.60;;
3341;SDS011;1684;50.748;6.154;2022-09-27T04:52:27;4.47;;;2.40;;
3341;SDS011;1684;50.748;6.154;2022-09-27T04:54:57;3.77;;;2.70;;
3341;SDS011;1684;50.748;6.154;2022-09-27T04:57:25;5.73;;;2.67;;
3341;SDS011;1684;50.748;6.154;2022-09-27T04:59:54;4.30;;;2.50;;
3341;SDS011;1684;50.748;6.154;2022-09-27T05:02:27;5.07;;;3.00;;
3341;SDS011;1684;50.748;6.154;2022-09-27T05:04:55;3.03;;;2.43;;
3341;SDS011;1684;50.748;6.154;2022-09-27T05:07:24;4.80;;;2.80;;
3341;SDS011;1684;50.748;6.154;2022-09-27T05:09:52;4.37;;;3.03;;
3341;SDS011;1684;50.748;6.154;2022-09-27T05:12:21;4.20;;;2.23;;
3341;SDS011;1684;50.748;6.154;2022-09-27T05:14:52;4.87;;;3.30;;
3341;SDS011;1684;50.748;6.154;2022-09-27T05:17:20;4.80;;;3.43;;
3341;SDS011;1684;50.748;6.154;2022-09-27T05:19:50;5.17;;;2.93;;
3341;SDS011;1684;50.748;6.154;2022-09-27T05:22:18;3.70;;;2.90;;
3341;SDS011;1684;50.748;6.154;2022-09-27T05:24:46;3.87;;;2.90;;
3341;SDS011;1684;50.748;6.154;2022-09-27T05:27:15;4.57;;;2.50;;
3341;SDS011;1684;50.748;6.154;2022-09-27T05:29:45;5.37;;;2.97;;
3341;SDS011;1684;50.748;6.154;2022-09-27T05:32:14;4.00;;;2.50;;
3341;SDS011;1684;50.748;6.154;2022-09-27T05:34:42;3.40;;;2.30;;
3341;SDS011;1684;50.748;6.154;2022-09-27T05:37:12;4.03;;;2.90;;
3341;SDS011;1684;50.748;6.154;2022-09-27T05:39:40;7.60;;;3.20;;
3341;SDS011;1684;50.748;6.154;2022-09-27T05:42:09;4.53;;;3.30;;
3341;SDS011;1684;50.748;6.154;2022-09-27T05:44:39;6.00;;;3.27;;
3341;SDS011;1684;50.748;6.154;2022-09-27T05:47:07;4.07;;;2.37;;
3341;SDS011;1684;50.748;6.154;2022-09-27T05:49:35;8.23;;;2.47;;
3341;SDS011;1684;50.748;6.154;2022-09-27T05:52:04;4.60;;;2.90;;
3341;SDS011;1684;50.748;6.154;2022-09-27T05:54:36;4.43;;;2.47;;
3341;SDS011;1684;50.748;6.154;2022-09-27T05:57:04;3.00;;;2.00;;
3341;SDS011;1684;50.748;6.154;2022-09-27T05:59:33;4.90;;;2.53;;
3341;SDS011;1684;50.748;6.154;2022-09-27T06:02:01;4.50;;;3.00;;
3341;SDS011;1684;50.748;6.154;2022-09-27T06:04:30;5.60;;;2.63;;
3341;SDS011;1684;50.748;6.154;2022-09-27T06:06:58;4.53;;;2.17;;
3341;SDS011;1684;50.748;6.154;2022-09-27T06:09:26;3.30;;;2.30;;
3341;SDS011;1684;50.748;6.154;2022-09-27T06:11:56;5.23;;;2.50;;
3341;SDS011;1684;50.748;6.154;2022-09-27T06:14:26;5.03;;;2.83;;
3341;SDS011;1684;50.748;6.154;2022-09-27T06:16:55;4.30;;;2.50;;
3341;SDS011;1684;50.748;6.154;2022-09-27T06:19:23;5.10;;;2.93;;
3341;SDS011;1684;50.748;6.154;2022-09-27T06:21:52;4.47;;;3.93;;
3341;SDS011;1684;50.748;6.154;2022-09-27T06:24:20;3.23;;;2.33;;
3341;SDS011;1684;50.748;6.154;2022-09-27T06:26:48;5.50;;;3.30;;
3341;SDS011;1684;50.748;6.154;2022-09-27T06:29:18;5.60;;;3.37;;
3341;SDS011;1684;50.748;6.154;2022-09-27T06:31:46;6.03;;;3.20;;
3341;SDS011;1684;50.748;6.154;2022-09-27T06:34:14;4.10;;;3.20;;
3341;SDS011;1684;50.748;6.154;2022-09-27T06:36:43;5.03;;;3.20;;
3341;SDS011;1684;50.748;6.154;2022-09-27T06:39:15;7.10;;;3.80;;
3341;SDS011;1684;50.748;6.154;2022-09-27T06:41:44;6.37;;;4.80;;
3341;SDS011;1684;50.748;6.154;2022-09-27T06:44:13;8.00;;;3.23;;
3341;SDS011;1684;50.748;6.154;2022-09-27T06:46:43;5.20;;;3.60;;
3341;SDS011;1684;50.748;6.154;2022-09-27T06:49:11;7.33;;;3.60;;
3341;SDS011;1684;50.748;6.154;2022-09-27T06:51:39;5.80;;;4.30;;
3341;SDS011;1684;50.748;6.154;2022-09-27T06:54:10;5.20;;;3.57;;
3341;SDS011;1684;50.748;6.154;2022-09-27T06:56:39;8.53;;;4.20;;
3341;SDS011;1684;50.748;6.154;2022-09-27T06:59:07;7.73;;;3.93;;
3341;SDS011;1684;50.748;6.154;2022-09-27T07:01:54;6.83;;;4.20;;
3341;SDS011;1684;50.748;6.154;2022-09-27T07:04:22;4.67;;;3.90;;
3341;SDS011;1684;50.748;6.154;2022-09-27T07:06:50;6.50;;;3.40;;
3341;SDS011;1684;50.748;6.154;2022-09-27T07:09:19;7.77;;;4.60;;
3341;SDS011;1684;50.748;6.154;2022-09-27T07:11:47;5.60;;;3.60;;
3341;SDS011;1684;50.748;6.154;2022-09-27T07:14:15;6.80;;;4.70;;
3341;SDS011;1684;50.748;6.154;2022-09-27T07:16:44;6.03;;;3.80;;
3341;SDS011;1684;50.748;6.154;2022-09-27T07:19:13;5.93;;;3.40;;
3341;SDS011;1684;50.748;6.154;2022-09-27T07:21:43;10.77;;;3.97;;
3341;SDS011;1684;50.748;6.154;2022-09-27T07:24:11;6.17;;;4.10;;
3341;SDS011;1684;50.748;6.154;2022-09-27T07:26:40;8.67;;;4.23;;
3341;SDS011;1684;50.748;6.154;2022-09-27T07:29:08;6.07;;;4.73;;
3341;SDS011;1684;50.748;6.154;2022-09-27T07:31:36;7.43;;;4.93;;
3341;SDS011;1684;50.748;6.154;2022-09-27T07:34:04;5.67;;;4.10;;
3341;SDS011;1684;50.748;6.154;2022-09-27T07:36:34;9.93;;;5.40;;
3341;SDS011;1684;50.748;6.154;2022-09-27T07:39:02;8.00;;;4.10;;
3341;SDS011;1684;50.748;6.154;2022-09-27T07:41:34;8.00;;;4.73;;
3341;SDS011;1684;50.748;6.154;2022-09-27T07:44:04;9.40;;;4.83;;
3341;SDS011;1684;50.748;6.154;2022-09-27T07:46:33;11.00;;;5.07;;
3341;SDS011;1684;50.748;6.154;2022-09-27T07:49:01;5.70;;;4.50;;
3341;SDS011;1684;50.748;6.154;2022-09-27T07:51:29;7.93;;;4.77;;
3341;SDS011;1684;50.748;6.154;2022-09-27T07:53:59;8.57;;;5.70;;
3341;SDS011;1684;50.748;6.154;2022-09-27T07:56:34;7.37;;;5.67;;
3341;SDS011;1684;50.748;6.154;2022-09-27T07:59:02;7.17;;;5.67;;
3341;SDS011;1684;50.748;6.154;2022-09-27T08:01:30;9.80;;;6.20;;
3341;SDS011;1684;50.748;6.154;2022-09-27T08:03:59;9.80;;;5.77;;
3341;SDS011;1684;50.748;6.154;2022-09-27T08:06:28;8.70;;;5.90;;
3341;SDS011;1684;50.748;6.154;2022-09-27T08:08:56;5.73;;;5.13;;
3341;SDS011;1684;50.748;6.154;2022-09-27T08:11:26;6.13;;;5.20;;
3341;SDS011;1684;50.748;6.154;2022-09-27T08:13:55;12.70;;;6.53;;
3341;SDS011;1684;50.748;6.154;2022-09-27T08:16:23;10.57;;;6.10;;
3341;SDS011;1684;50.748;6.154;2022-09-27T08:18:51;7.03;;;5.63;;
3341;SDS011;1684;50.748;6.154;2022-09-27T08:21:20;9.80;;;6.73;;
3341;SDS011;1684;50.748;6.154;2022-09-27T08:23:48;8.33;;;7.10;;
3341;SDS011;1684;50.748;6.154;2022-09-27T08:26:16;8.67;;;6.87;;
3341;SDS011;1684;50.748;6.154;2022-09-27T08:28:47;9.23;;;6.50;;
3341;SDS011;1684;50.748;6.154;2022-09-27T08:31:15;7.83;;;5.47;;
3341;SDS011;1684;50.748;6.154;2022-09-27T08:33:47;16.13;;;7.70;;
3341;SDS011;1684;50.748;6.154;2022-09-27T08:36:15;10.17;;;6.87;;
3341;SDS011;1684;50.748;6.154;2022-09-27T08:38:47;7.30;;;5.60;;
3341;SDS011;1684;50.748;6.154;2022-09-27T08:41:20;8.77;;;5.90;;
3341;SDS011;1684;50.748;6.154;2022-09-27T08:44:00;7.03;;;4.00;;
3341;SDS011;1684;50.748;6.154;2022-09-27T08:46:34;6.30;;;4.00;;
3341;SDS011;1684;50.748;6.154;2022-09-27T08:49:09;6.87;;;3.90;;
3341;SDS011;1684;50.748;6.154;2022-09-27T08:51:40;6.73;;;4.40;;
3341;SDS011;1684;50.748;6.154;2022-09-27T08:54:10;6.10;;;3.80;;
3341;SDS011;1684;50.748;6.154;2022-09-27T08:56:44;5.70;;;3.70;;
3341;SDS011;1684;50.748;6.154;2022-09-27T08:59:16;5.30;;;3.97;;
3341;SDS011;1684;50.748;6.154;2022-09-27T09:01:46;7.33;;;4.20;;
3341;SDS011;1684;50.748;6.154;2022-09-27T09:04:21;5.57;;;3.70;;
3341;SDS011;1684;50.748;6.154;2022-09-27T09:06:54;7.73;;;5.10;;
3341;SDS011;1684;50.748;6.154;2022-09-27T09:09:28;6.13;;;4.10;;
3341;SDS011;1684;50.748;6.154;2022-09-27T09:11:59;4.37;;;3.37;;
3341;SDS011;1684;50.748;6.154;2022-09-27T09:14:55;6.33;;;4.73;;
3341;SDS011;1684;50.748;6.154;2022-09-27T09:17:28;6.27;;;4.17;;
3341;SDS011;1684;50.748;6.154;2022-09-27T09:20:02;9.57;;;5.50;;
3341;SDS011;1684;50.748;6.154;2022-09-27T09:22:46;6.93;;;4.40;;
3341;SDS011;1684;50.748;6.154;2022-09-27T09:25:22;5.37;;;3.93;;
3341;SDS011;1684;50.748;6.154;2022-09-27T09:27:53;5.63;;;3.50;;
3341;SDS011;1684;50.748;6.154;2022-09-27T09:30:30;7.37;;;5.00;;
3341;SDS011;1684;50.748;6.154;2022-09-27T09:33:09;6.43;;;4.50;;
3341;SDS011;1684;50.748;6.154;2022-09-27T09:35:42;7.77;;;5.17;;
3341;SDS011;1684;50.748;6.154;2022-09-27T09:38:14;5.33;;;3.57;;
3341;SDS011;1684;50.748;6.154;2022-09-27T09:40:45;11.03;;;5.83;;
3341;SDS011;1684;50.748;6.154;2022-09-27T09:43:16;8.93;;;5.87;;
3341;SDS011;1684;50.748;6.154;2022-09-27T09:45:47;10.20;;;4.80;;
3341;SDS011;1684;50.748;6.154;2022-09-27T09:48:18;10.30;;;6.10;;
3341;SDS011;1684;50.748;6.154;2022-09-27T09:50:48;10.50;;;7.17;;
3341;SDS011;1684;50.748;6.154;2022-09-27T09:53:20;10.77;;;6.90;;
3341;SDS011;1684;50.748;6.154;2022-09-27T09:55:50;11.20;;;6.20;;
3341;SDS011;1684;50.748;6.154;2022-09-27T09:58:20;10.10;;;6.40;;
3341;SDS011;1684;50.748;6.154;2022-09-27T10:00:50;10.00;;;7.03;;
3341;SDS011;1684;50.748;6.154;2022-09-27T10:03:21;6.40;;;5.60;;
3341;SDS011;1684;50.748;6.154;2022-09-27T10:05:49;8.40;;;5.57;;
3341;SDS011;1684;50.748;6.154;2022-09-27T10:08:19;10.50;;;6.17;;
3341;SDS011;1684;50.748;6.154;2022-09-27T10:10:54;10.53;;;6.13;;
3341;SDS011;1684;50.748;6.154;2022-09-27T10:13:22;7.70;;;5.90;;
3341;SDS011;1684;50.748;6.154;2022-09-27T10:15:55;12.03;;;5.50;;
3341;SDS011;1684;50.748;6.154;2022-09-27T10:18:27;6.90;;;5.20;;
3341;SDS011;1684;50.748;6.154;2022-09-27T10:20:57;9.30;;;6.77;;
3341;SDS011;1684;50.748;6.154;2022-09-27T10:23:27;10.97;;;6.60;;
3341;SDS011;1684;50.748;6.154;2022-09-27T10:25:55;7.43;;;5.60;;
3341;SDS011;1684;50.748;6.154;2022-09-27T10:28:25;11.10;;;6.23;;
3341;SDS011;1684;50.748;6.154;2022-09-27T10:30:56;8.23;;;6.20;;
3341;SDS011;1684;50.748;6.154;2022-09-27T10:33:25;9.50;;;5.60;;
3341;SDS011;1684;50.748;6.154;2022-09-27T10:35:55;11.60;;;5.80;;
3341;SDS011;1684;50.748;6.154;2022-09-27T10:38:24;7.40;;;5.30;;
3341;SDS011;1684;50.748;6.154;2022-09-27T10:40:54;8.20;;;4.90;;
3341;SDS011;1684;50.748;6.154;2022-09-27T10:43:25;7.30;;;4.40;;
3341;SDS011;1684;50.748;6.154;2022-09-27T10:46:00;11.13;;;4.80;;
3341;SDS011;1684;50.748;6.154;2022-09-27T10:48:29;7.07;;;4.47;;
3341;SDS011;1684;50.748;6.154;2022-09-27T10:50:58;8.37;;;4.73;;
3341;SDS011;1684;50.748;6.154;2022-09-27T10:53:26;4.63;;;4.13;;
3341;SDS011;1684;50.748;6.154;2022-09-27T10:55:55;8.60;;;4.50;;
3341;SDS011;1684;50.748;6.154;2022-09-27T10:58:25;6.33;;;3.90;;
3341;SDS011;1684;50.748;6.154;2022-09-27T11:00:55;6.27;;;4.83;;
3341;SDS011;1684;50.748;6.154;2022-09-27T11:03:25;5.80;;;4.60;;
3341;SDS011;1684;50.748;6.154;2022-09-27T11:05:54;5.40;;;3.63;;
3341;SDS011;1684;50.748;6.154;2022-09-27T11:08:28;5.73;;;4.40;;
3341;SDS011;1684;50.748;6.154;2022-09-27T11:11:05;6.90;;;4.00;;
3341;SDS011;1684;50.748;6.154;2022-09-27T11:13:33;5.87;;;3.43;;
3341;SDS011;1684;50.748;6.154;2022-09-27T11:16:13;5.00;;;3.07;;
3341;SDS011;1684;50.748;6.154;2022-09-27T11:18:49;5.83;;;3.73;;
3341;SDS011;1684;50.748;6.154;2022-09-27T11:21:21;9.43;;;3.40;;
3341;SDS011;1684;50.748;6.154;2022-09-27T11:23:56;4.90;;;3.20;;
3341;SDS011;1684;50.748;6.154;2022-09-27T11:26:29;3.63;;;2.20;;
3341;SDS011;1684;50.748;6.154;2022-09-27T11:29:02;3.00;;;1.20;;
3341;SDS011;1684;50.748;6.154;2022-09-27T11:31:35;4.67;;;1.77;;
3341;SDS011;1684;50.748;6.154;2022-09-27T11:34:16;4.03;;;1.73;;
3341;SDS011;1684;50.748;6.154;2022-09-27T11:36:54;2.83;;;1.70;;
3341;SDS011;1684;50.748;6.154;2022-09-27T11:39:26;3.13;;;1.83;;
3341;SDS011;1684;50.748;6.154;2022-09-27T11:41:59;3.97;;;1.80;;
3341;SDS011;1684;50.748;6.154;2022-09-27T11:44:39;5.50;;;1.47;;
3341;SDS011;1684;50.748;6.154;2022-09-27T11:47:12;3.33;;;1.93;;
3341;SDS011;1684;50.748;6.154;2022-09-27T11:49:55;2.50;;;1.60;;
3341;SDS011;1684;50.748;6.154;2022-09-27T11:52:28;8.63;;;2.30;;
3341;SDS011;1684;50.748;6.154;2022-09-27T11:55:11;2.77;;;1.87;;
3341;SDS011;1684;50.748;6.154;2022-09-27T11:57:42;6.13;;;1.87;;
3341;SDS011;1684;50.748;6.154;2022-09-27T12:00:17;5.10;;;1.40;;
3341;SDS011;1684;50.748;6.154;2022-09-27T12:03:01;3.17;;;1.83;;
3341;SDS011;1684;50.748;6.154;2022-09-27T12:05:35;2.70;;;1.80;;
3341;SDS011;1684;50.748;6.154;2022-09-27T12:08:09;4.20;;;1.83;;
3341;SDS011;1684;50.748;6.154;2022-09-27T12:10:40;6.20;;;1.70;;
3341;SDS011;1684;50.748;6.154;2022-09-27T12:13:09;4.07;;;2.10;;
3341;SDS011;1684;50.748;6.154;2022-09-27T12:15:40;2.97;;;1.80;;
3341;SDS011;1684;50.748;6.154;2022-09-27T12:18:11;2.43;;;1.47;;
3341;SDS011;1684;50.748;6.154;2022-09-27T12:20:42;2.90;;;1.57;;
3341;SDS011;1684;50.748;6.154;2022-09-27T12:23:13;4.47;;;1.70;;
3341;SDS011;1684;50.748;6.154;2022-09-27T12:25:43;3.70;;;1.90;;
3341;SDS011;1684;50.748;6.154;2022-09-27T12:28:13;3.17;;;1.37;;
3341;SDS011;1684;50.748;6.154;2022-09-27T12:30:52;3.90;;;1.57;;
3341;SDS011;1684;50.748;6.154;2022-09-27T12:33:43;2.40;;;1.30;;
3341;SDS011;1684;50.748;6.154;2022-09-27T12:36:14;2.90;;;1.63;;
3341;SDS011;1684;50.748;6.154;2022-09-27T12:38:45;3.13;;;1.30;;
3341;SDS011;1684;50.748;6.154;2022-09-27T12:41:18;2.50;;;1.30;;
3341;SDS011;1684;50.748;6.154;2022-09-27T12:43:47;2.10;;;1.17;;
3341;SDS011;1684;50.748;6.154;2022-09-27T12:46:19;3.90;;;1.70;;
3341;SDS011;1684;50.748;6.154;2022-09-27T12:48:51;3.13;;;1.70;;
3341;SDS011;1684;50.748;6.154;2022-09-27T12:51:29;2.97;;;1.30;;
3341;SDS011;1684;50.748;6.154;2022-09-27T12:54:04;2.43;;;1.13;;
3341;SDS011;1684;50.748;6.154;2022-09-27T12:56:40;2.73;;;1.20;;
3341;SDS011;1684;50.748;6.154;2022-09-27T12:59:15;3.13;;;1.13;;
3341;SDS011;1684;50.748;6.154;2022-09-27T13:01:50;2.17;;;1.23;;
3341;SDS011;1684;50.748;6.154;2022-09-27T13:04:25;3.00;;;1.50;;
3341;SDS011;1684;50.748;6.154;2022-09-27T13:07:01;2.70;;;1.30;;
3341;SDS011;1684;50.748;6.154;2022-09-27T13:09:41;2.23;;;0.93;;
3341;SDS011;1684;50.748;6.154;2022-09-27T13:12:13;4.40;;;1.60;;
3341;SDS011;1684;50.748;6.154;2022-09-27T13:14:54;3.10;;;1.40;;
3341;SDS011;1684;50.748;6.154;2022-09-27T13:17:30;3.40;;;1.20;;
3341;SDS011;1684;50.748;6.154;2022-09-27T13:22:45;3.23;;;1.30;;
3341;SDS011;1684;50.748;6.154;2022-09-27T13:27:57;4.83;;;1.67;;
3341;SDS011;1684;50.748;6.154;2022-09-27T13:33:27;4.40;;;1.53;;
3341;SDS011;1684;50.748;6.154;2022-09-27T13:36:05;5.23;;;1.40;;
3341;SDS011;1684;50.748;6.154;2022-09-27T13:38:35;4.17;;;1.70;;
3341;SDS011;1684;50.748;6.154;2022-09-27T13:41:12;5.50;;;1.90;;
3341;SDS011;1684;50.748;6.154;2022-09-27T13:43:51;2.57;;;1.50;;
3341;SDS011;1684;50.748;6.154;2022-09-27T13:46:24;2.70;;;1.57;;
3341;SDS011;1684;50.748;6.154;2022-09-27T13:48:54;4.73;;;2.20;;
3341;SDS011;1684;50.748;6.154;2022-09-27T13:51:34;3.93;;;1.87;;
3341;SDS011;1684;50.748;6.154;2022-09-27T13:54:05;3.00;;;1.20;;
3341;SDS011;1684;50.748;6.154;2022-09-27T13:56:49;4.13;;;1.67;;
3341;SDS011;1684;50.748;6.154;2022-09-27T13:59:19;4.53;;;2.10;;
3341;SDS011;1684;50.748;6.154;2022-09-27T14:01:50;3.40;;;2.13;;
3341;SDS011;1684;50.748;6.154;2022-09-27T14:04:20;4.50;;;2.07;;
3341;SDS011;1684;50.748;6.154;2022-09-27T14:06:49;2.57;;;1.00;;
3341;SDS011;1684;50.748;6.154;2022-09-27T14:09:24;3.63;;;1.30;;
3341;SDS011;1684;50.748;6.154;2022-09-27T14:11:54;6.03;;;1.40;;
3341;SDS011;1684;50.748;6.154;2022-09-27T14:14:24;3.00;;;1.57;;
3341;SDS011;1684;50.748;6.154;2022-09-27T14:16:54;5.17;;;1.50;;
3341;SDS011;1684;50.748;6.154;2022-09-27T14:19:23;3.30;;;1.57;;
3341;SDS011;1684;50.748;6.154;2022-09-27T14:21:52;2.77;;;1.17;;
3341;SDS011;1684;50.748;6.154;2022-09-27T14:24:26;2.87;;;1.60;;
3341;SDS011;1684;50.748;6.154;2022-09-27T14:27:05;2.30;;;1.20;;
3341;SDS011;1684;50.748;6.154;2022-09-27T14:29:38;3.30;;;1.60;;
3341;SDS011;1684;50.748;6.154;2022-09-27T14:32:09;4.63;;;1.23;;
3341;SDS011;1684;50.748;6.154;2022-09-27T14:34:38;3.80;;;1.60;;
3341;SDS011;1684;50.748;6.154;2022-09-27T14:37:20;4.10;;;1.50;;
3341;SDS011;1684;50.748;6.154;2022-09-27T14:39:54;4.43;;;1.40;;
3341;SDS011;1684;50.748;6.154;2022-09-27T14:42:24;4.00;;;1.87;;
3341;SDS011;1684;50.748;6.154;2022-09-27T14:44:55;2.80;;;1.60;;
3341;SDS011;1684;50.748;6.154;2022-09-27T14:47:26;4.73;;;1.40;;
3341;SDS011;1684;50.748;6.154;2022-09-27T14:49:55;3.40;;;1.53;;
3341;SDS011;1684;50.748;6.154;2022-09-27T14:52:24;2.80;;;1.47;;
3341;SDS011;1684;50.748;6.154;2022-09-27T14:55:00;5.67;;;1.90;;
3341;SDS011;1684;50.748;6.154;2022-09-27T14:57:30;5.53;;;1.80;;
3341;SDS011;1684;50.748;6.154;2022-09-27T15:00:09;3.20;;;1.80;;
3341;SDS011;1684;50.748;6.154;2022-09-27T15:02:42;4.20;;;2.17;;
3341;SDS011;1684;50.748;6.154;2022-09-27T15:05:12;9.93;;;2.43;;
3341;SDS011;1684;50.748;6.154;2022-09-27T15:07:41;5.47;;;2.63;;
3341;SDS011;1684;50.748;6.154;2022-09-27T15:10:13;4.07;;;2.23;;
3341;SDS011;1684;50.748;6.154;2022-09-27T15:12:43;5.00;;;1.90;;
3341;SDS011;1684;50.748;6.154;2022-09-27T15:15:14;3.80;;;2.10;;
3341;SDS011;1684;50.748;6.154;2022-09-27T15:17:42;4.57;;;2.53;;
3341;SDS011;1684;50.748;6.154;2022-09-27T15:20:17;3.70;;;2.47;;
3341;SDS011;1684;50.748;6.154;2022-09-27T15:22:47;7.63;;;2.30;;
3341;SDS011;1684;50.748;6.154;2022-09-27T15:25:21;5.90;;;2.30;;
3341;SDS011;1684;50.748;6.154;2022-09-27T15:27:51;6.30;;;2.90;;
3341;SDS011;1684;50.748;6.154;2022-09-27T15:30:23;5.10;;;2.20;;
3341;SDS011;1684;50.748;6.154;2022-09-27T15:32:55;5.87;;;2.80;;
3341;SDS011;1684;50.748;6.154;2022-09-27T15:35:25;6.97;;;2.90;;
3341;SDS011;1684;50.748;6.154;2022-09-27T15:38:08;4.00;;;2.90;;
3341;SDS011;1684;50.748;6.154;2022-09-27T15:43:31;7.93;;;3.63;;
3341;SDS011;1684;50.748;6.154;2022-09-27T15:46:01;7.20;;;3.80;;
3341;SDS011;1684;50.748;6.154;2022-09-27T15:48:30;9.87;;;4.90;;
3341;SDS011;1684;50.748;6.154;2022-09-27T15:51:00;9.00;;;4.27;;
3341;SDS011;1684;50.748;6.154;2022-09-27T15:53:41;9.63;;;3.90;;
3341;SDS011;1684;50.748;6.154;2022-09-27T15:56:11;8.27;;;4.20;;